createdAt,value
2017-07-10T00:00:50.877Z,15.5
2017-07-10T00:01:53.234Z,15.5
2017-07-10T00:02:55.249Z,15.5
2017-07-10T00:03:57.615Z,15.5
2017-07-10T00:04:59.637Z,15.5
2017-07-10T00:06:01.655Z,15.6
2017-07-10T00:07:03.671Z,15.6
2017-07-10T00:08:05.692Z,15.6
2017-07-10T00:09:07.702Z,15.5
2017-07-10T00:10:09.704Z,15.5
2017-07-10T00:11:11.717Z,15.6
2017-07-10T00:12:13.736Z,15.6
2017-07-10T00:13:15.754Z,15.7
2017-07-10T00:14:17.775Z,15.7
2017-07-10T00:15:19.790Z,15.7
2017-07-10T00:16:21.805Z,15.8
2017-07-10T00:17:23.823Z,15.8
2017-07-10T00:18:25.842Z,15.8
2017-07-10T00:19:27.861Z,15.8
2017-07-10T00:20:29.871Z,15.7
2017-07-10T00:21:31.888Z,15.7
2017-07-10T00:22:33.926Z,15.7
2017-07-10T00:23:35.940Z,15.8
2017-07-10T00:24:37.947Z,15.8
2017-07-10T00:25:39.966Z,15.7
2017-07-10T00:26:41.977Z,15.7
2017-07-10T00:27:43.993Z,15.7
2017-07-10T00:28:46.007Z,15.7
2017-07-10T00:29:48.029Z,15.7
2017-07-10T00:30:50.049Z,15.7
2017-07-10T00:31:52.055Z,15.7
2017-07-10T00:32:54.072Z,15.7
2017-07-10T00:33:56.088Z,15.7
2017-07-10T00:34:58.096Z,15.7
2017-07-10T00:36:00.115Z,15.7
2017-07-10T00:37:02.488Z,15.6
2017-07-10T00:38:04.507Z,15.6
2017-07-10T00:39:06.517Z,15.6
2017-07-10T00:40:08.529Z,15.6
2017-07-10T00:41:10.553Z,15.5
2017-07-10T00:42:12.562Z,15.5
2017-07-10T00:43:14.580Z,15.5
2017-07-10T00:44:16.604Z,15.4
2017-07-10T00:45:18.620Z,15.4
2017-07-10T00:46:20.638Z,15.4
2017-07-10T00:47:22.652Z,15.4
2017-07-10T00:48:24.674Z,15.4
2017-07-10T00:49:26.694Z,15.4
2017-07-10T00:50:28.697Z,15.5
2017-07-10T00:51:30.720Z,15.5
2017-07-10T00:52:32.729Z,15.5
2017-07-10T00:53:34.755Z,15.5
2017-07-10T00:54:36.772Z,15.6
2017-07-10T00:55:38.786Z,15.5
2017-07-10T00:56:40.791Z,15.5
2017-07-10T00:57:42.822Z,15.6
2017-07-10T00:58:44.833Z,15.6
2017-07-10T00:59:46.849Z,15.6
2017-07-10T01:00:48.863Z,15.6
2017-07-10T01:01:50.871Z,15.6
2017-07-10T01:02:52.883Z,15.6
2017-07-10T01:03:55.249Z,15.6
2017-07-10T01:04:57.263Z,15.6
2017-07-10T01:05:59.288Z,15.6
2017-07-10T01:07:01.298Z,15.5
2017-07-10T01:08:03.319Z,15.5
2017-07-10T01:09:05.335Z,15.6
2017-07-10T01:10:07.346Z,15.6
2017-07-10T01:11:09.355Z,15.5
2017-07-10T01:12:11.373Z,15.5
2017-07-10T01:13:13.395Z,15.5
2017-07-10T01:14:15.410Z,15.5
2017-07-10T01:15:17.766Z,15.5
2017-07-10T01:16:19.787Z,15.4
2017-07-10T01:17:21.799Z,15.4
2017-07-10T01:18:23.817Z,15.4
2017-07-10T01:19:25.830Z,15.4
2017-07-10T01:20:27.855Z,15.4
2017-07-10T01:21:29.862Z,15.4
2017-07-10T01:22:31.873Z,15.3
2017-07-10T01:23:34.230Z,15.3
2017-07-10T01:24:36.242Z,15.4
2017-07-10T01:25:38.250Z,15.4
2017-07-10T01:26:40.263Z,15.4
2017-07-10T01:27:42.275Z,15.4
2017-07-10T01:28:44.317Z,15.3
2017-07-10T01:29:46.301Z,15.3
2017-07-10T01:30:48.320Z,15.3
2017-07-10T01:31:50.331Z,15.3
2017-07-10T01:32:52.345Z,15.4
2017-07-10T01:33:54.356Z,15.4
2017-07-10T01:34:56.378Z,15.4
2017-07-10T01:35:58.396Z,15.4
2017-07-10T01:37:00.763Z,15.4
2017-07-10T01:38:02.780Z,15.4
2017-07-10T01:39:04.797Z,15.4
2017-07-10T01:40:06.804Z,15.4
2017-07-10T01:41:09.155Z,15.4
2017-07-10T01:42:11.166Z,15.4
2017-07-10T01:43:13.184Z,15.4
2017-07-10T01:44:15.199Z,15.4
2017-07-10T01:45:17.209Z,15.4
2017-07-10T01:46:19.220Z,15.3
2017-07-10T01:47:21.244Z,15.3
2017-07-10T01:48:23.250Z,15.4
2017-07-10T01:49:25.280Z,15.4
2017-07-10T01:50:27.296Z,15.4
2017-07-10T01:51:29.311Z,15.4
2017-07-10T01:52:31.327Z,15.3
2017-07-10T01:53:33.339Z,15.3
2017-07-10T01:54:35.357Z,15.3
2017-07-10T01:55:37.377Z,15.3
2017-07-10T01:56:39.387Z,15.3
2017-07-10T01:57:41.409Z,15.3
2017-07-10T01:58:43.415Z,15.3
2017-07-10T01:59:45.431Z,15.3
2017-07-10T02:00:47.445Z,15.3
2017-07-10T02:01:49.460Z,15.3
2017-07-10T02:02:51.481Z,15.3
2017-07-10T02:03:53.488Z,15.3
2017-07-10T02:04:55.503Z,15.2
2017-07-10T02:05:57.513Z,15.2
2017-07-10T02:06:59.528Z,15.2
2017-07-10T02:08:01.540Z,15.2
2017-07-10T02:09:03.550Z,15.2
2017-07-10T02:10:05.565Z,15.2
2017-07-10T02:11:07.589Z,15.2
2017-07-10T02:12:09.605Z,15.2
2017-07-10T02:13:11.615Z,15.2
2017-07-10T02:14:13.975Z,15.2
2017-07-10T02:15:15.991Z,15.1
2017-07-10T02:16:17.999Z,15.1
2017-07-10T02:17:20.015Z,15.1
2017-07-10T02:18:22.039Z,15
2017-07-10T02:19:24.052Z,15
2017-07-10T02:20:26.055Z,15
2017-07-10T02:21:28.071Z,15
2017-07-10T02:22:30.081Z,15
2017-07-10T02:23:32.428Z,15
2017-07-10T02:24:34.449Z,15
2017-07-10T02:25:36.472Z,15.1
2017-07-10T02:26:38.834Z,15.1
2017-07-10T02:27:40.846Z,15.1
2017-07-10T02:28:43.213Z,15
2017-07-10T02:29:45.240Z,15
2017-07-10T02:30:47.246Z,14.9
2017-07-10T02:31:49.260Z,14.9
2017-07-10T02:32:51.282Z,14.8
2017-07-10T02:33:53.297Z,14.8
2017-07-10T02:34:55.309Z,14.8
2017-07-10T02:35:57.319Z,14.8
2017-07-10T02:36:59.344Z,14.9
2017-07-10T02:38:01.353Z,14.9
2017-07-10T02:39:03.365Z,14.9
2017-07-10T02:40:05.391Z,14.9
2017-07-10T02:41:07.403Z,14.9
2017-07-10T02:42:09.419Z,15
2017-07-10T02:43:11.430Z,14.9
2017-07-10T02:44:13.454Z,15
2017-07-10T02:45:15.472Z,15
2017-07-10T02:46:17.495Z,15
2017-07-10T02:47:19.510Z,15
2017-07-10T02:48:21.527Z,15
2017-07-10T02:49:23.548Z,15
2017-07-10T02:50:25.558Z,15
2017-07-10T02:51:27.583Z,15
2017-07-10T02:52:29.597Z,15
2017-07-10T02:53:31.611Z,15.1
2017-07-10T02:54:33.633Z,15
2017-07-10T02:55:35.650Z,15
2017-07-10T02:56:37.665Z,15
2017-07-10T02:57:39.679Z,15
2017-07-10T02:58:41.694Z,15
2017-07-10T02:59:43.710Z,15
2017-07-10T03:00:45.714Z,15
2017-07-10T03:01:47.738Z,15.1
2017-07-10T03:02:49.759Z,15.1
2017-07-10T03:03:51.773Z,15.1
2017-07-10T03:04:53.797Z,15.1
2017-07-10T03:05:55.813Z,15.2
2017-07-10T03:06:57.829Z,15.2
2017-07-10T03:07:59.852Z,15.2
2017-07-10T03:09:01.867Z,15.2
2017-07-10T03:10:03.890Z,15.2
2017-07-10T03:11:05.906Z,15.2
2017-07-10T03:12:07.912Z,15.2
2017-07-10T03:13:09.929Z,15.2
2017-07-10T03:14:11.949Z,15.3
2017-07-10T03:15:13.960Z,15.2
2017-07-10T03:16:15.997Z,15.2
2017-07-10T03:17:17.999Z,15.3
2017-07-10T03:18:20.017Z,15.3
2017-07-10T03:19:22.028Z,15.3
2017-07-10T03:20:24.040Z,15.3
2017-07-10T03:21:26.065Z,15.2
2017-07-10T03:22:28.082Z,15.2
2017-07-10T03:23:30.096Z,15.2
2017-07-10T03:24:32.482Z,15.2
2017-07-10T03:25:34.493Z,15.2
2017-07-10T03:26:36.850Z,15.2
2017-07-10T03:27:38.865Z,15.2
2017-07-10T03:28:40.882Z,15.2
2017-07-10T03:29:42.895Z,15.2
2017-07-10T03:30:44.916Z,15.2
2017-07-10T03:31:46.944Z,15.2
2017-07-10T03:32:48.958Z,15.2
2017-07-10T03:33:50.975Z,15.2
2017-07-10T03:34:52.998Z,15.2
2017-07-10T03:35:55.014Z,15.2
2017-07-10T03:36:57.034Z,15.2
2017-07-10T03:37:59.049Z,15.3
2017-07-10T03:39:01.412Z,15.3
2017-07-10T03:40:03.431Z,15.3
2017-07-10T03:41:05.440Z,15.3
2017-07-10T03:42:07.466Z,15.3
2017-07-10T03:43:09.486Z,15.4
2017-07-10T03:44:11.498Z,15.4
2017-07-10T03:45:13.530Z,15.4
2017-07-10T03:46:15.551Z,15.4
2017-07-10T03:47:17.565Z,15.4
2017-07-10T03:48:19.588Z,15.4
2017-07-10T03:49:21.937Z,15.5
2017-07-10T03:50:23.958Z,15.5
2017-07-10T03:51:25.971Z,15.5
2017-07-10T03:52:27.984Z,15.5
2017-07-10T03:53:30.009Z,15.5
2017-07-10T03:54:32.022Z,15.5
2017-07-10T03:55:34.041Z,15.6
2017-07-10T03:56:36.055Z,15.6
2017-07-10T03:57:38.081Z,15.6
2017-07-10T03:58:40.104Z,15.6
2017-07-10T03:59:42.117Z,15.6
2017-07-10T04:00:44.137Z,15.6
2017-07-10T04:01:46.501Z,15.6
2017-07-10T04:02:48.853Z,15.6
2017-07-10T04:03:50.873Z,15.7
2017-07-10T04:04:52.897Z,15.7
2017-07-10T04:05:55.257Z,15.7
2017-07-10T04:06:57.273Z,15.7
2017-07-10T04:07:59.291Z,15.7
2017-07-10T04:09:01.298Z,15.7
2017-07-10T04:10:03.319Z,15.8
2017-07-10T04:11:05.338Z,15.7
2017-07-10T04:12:07.352Z,15.8
2017-07-10T04:13:09.371Z,15.7
2017-07-10T04:14:11.383Z,15.8
2017-07-10T04:15:13.401Z,15.8
2017-07-10T04:16:15.410Z,15.8
2017-07-10T04:17:17.429Z,15.8
2017-07-10T04:18:19.460Z,15.8
2017-07-10T04:19:21.479Z,15.8
2017-07-10T04:20:23.489Z,15.8
2017-07-10T04:21:25.506Z,15.8
2017-07-10T04:22:27.519Z,15.8
2017-07-10T04:23:29.536Z,15.8
2017-07-10T04:24:31.563Z,15.8
2017-07-10T04:25:33.579Z,15.8
2017-07-10T04:26:35.597Z,15.8
2017-07-10T04:27:37.617Z,15.9
2017-07-10T04:28:39.634Z,15.9
2017-07-10T04:29:41.657Z,15.9
2017-07-10T04:30:43.679Z,15.9
2017-07-10T04:31:46.049Z,15.9
2017-07-10T04:32:48.115Z,15.9
2017-07-10T04:33:50.420Z,15.9
2017-07-10T04:34:52.437Z,16
2017-07-10T04:35:54.451Z,16
2017-07-10T04:36:56.476Z,16
2017-07-10T04:37:58.497Z,16
2017-07-10T04:39:00.508Z,16
2017-07-10T04:40:02.530Z,16
2017-07-10T04:41:04.551Z,16
2017-07-10T04:42:06.580Z,16
2017-07-10T04:43:08.605Z,16.1
2017-07-10T04:44:10.613Z,16.1
2017-07-10T04:45:12.631Z,16.1
2017-07-10T04:46:14.704Z,16.1
2017-07-10T04:47:16.671Z,16.1
2017-07-10T04:48:18.694Z,16.1
2017-07-10T04:49:20.710Z,16.1
2017-07-10T04:50:22.733Z,16.1
2017-07-10T04:51:24.742Z,16.2
2017-07-10T04:52:26.758Z,16.2
2017-07-10T04:53:28.785Z,16.2
2017-07-10T04:54:30.809Z,16.2
2017-07-10T04:55:32.831Z,16.3
2017-07-10T04:56:34.846Z,16.3
2017-07-10T04:57:36.870Z,16.3
2017-07-10T04:58:38.894Z,16.3
2017-07-10T04:59:40.912Z,16.4
2017-07-10T05:00:42.927Z,16.4
2017-07-10T05:01:44.950Z,16.4
2017-07-10T05:02:46.970Z,16.4
2017-07-10T05:03:48.982Z,16.4
2017-07-10T05:04:51.004Z,16.4
2017-07-10T05:05:53.037Z,16.4
2017-07-10T05:06:55.055Z,16.5
2017-07-10T05:07:57.076Z,16.5
2017-07-10T05:08:59.101Z,16.6
2017-07-10T05:10:01.115Z,16.6
2017-07-10T05:11:03.133Z,16.7
2017-07-10T05:12:05.154Z,16.7
2017-07-10T05:13:07.184Z,16.8
2017-07-10T05:14:09.211Z,16.8
2017-07-10T05:15:11.221Z,16.9
2017-07-10T05:16:13.240Z,16.9
2017-07-10T05:17:15.269Z,16.9
2017-07-10T05:18:17.303Z,17
2017-07-10T05:19:19.318Z,17
2017-07-10T05:20:21.356Z,17
2017-07-10T05:21:23.375Z,17
2017-07-10T05:22:25.405Z,17
2017-07-10T05:23:27.416Z,17.1
2017-07-10T05:24:29.442Z,17.1
2017-07-10T05:25:31.471Z,17.1
2017-07-10T05:26:33.490Z,17.1
2017-07-10T05:27:35.512Z,17.1
2017-07-10T05:28:37.534Z,17.1
2017-07-10T05:29:39.558Z,17.1
2017-07-10T05:30:41.584Z,17.1
2017-07-10T05:31:43.593Z,17.1
2017-07-10T05:32:45.973Z,17.1
2017-07-10T05:33:47.996Z,17.1
2017-07-10T05:34:50.012Z,17.1
2017-07-10T05:35:52.035Z,17.2
2017-07-10T05:36:54.064Z,17.2
2017-07-10T05:37:56.087Z,17.2
2017-07-10T05:38:58.436Z,17.2
2017-07-10T05:40:00.457Z,17.2
2017-07-10T05:41:02.480Z,17.2
2017-07-10T05:42:04.494Z,17.2
2017-07-10T05:43:06.520Z,17.2
2017-07-10T05:44:08.545Z,17.2
2017-07-10T05:45:10.580Z,17.2
2017-07-10T05:46:12.587Z,17.3
2017-07-10T05:47:14.610Z,17.3
2017-07-10T05:48:16.816Z,17.3
2017-07-10T05:49:18.838Z,17.3
2017-07-10T05:50:20.861Z,17.3
2017-07-10T05:51:22.893Z,17.3
2017-07-10T05:52:24.923Z,17.3
2017-07-10T05:53:26.947Z,17.3
2017-07-10T05:54:28.969Z,17.3
2017-07-10T05:55:30.986Z,17.4
2017-07-10T05:56:33.014Z,17.3
2017-07-10T05:57:35.080Z,17.4
2017-07-10T05:58:37.095Z,17.4
2017-07-10T05:59:39.124Z,17.4
2017-07-10T06:00:41.924Z,17.4
2017-07-10T06:01:44.666Z,17.5
2017-07-10T06:02:46.748Z,17.4
2017-07-10T06:03:48.756Z,17.4
2017-07-10T06:04:50.802Z,17.5
2017-07-10T06:05:53.314Z,17.5
2017-07-10T06:06:55.411Z,17.5
2017-07-10T06:07:57.440Z,17.5
2017-07-10T06:09:00.094Z,17.5
2017-07-10T06:10:02.118Z,17.6
2017-07-10T06:11:04.144Z,17.6
2017-07-10T06:12:06.170Z,17.6
2017-07-10T06:13:08.933Z,17.7
2017-07-10T06:14:11.615Z,17.7
2017-07-10T06:15:13.729Z,17.7
2017-07-10T06:16:15.784Z,17.8
2017-07-10T06:17:17.806Z,17.8
2017-07-10T06:18:19.822Z,17.8
2017-07-10T06:19:23.802Z,17.8
2017-07-10T06:20:25.816Z,17.8
2017-07-10T06:21:27.846Z,17.8
2017-07-10T06:22:29.869Z,17.9
2017-07-10T06:23:31.996Z,17.9
2017-07-10T06:24:34.167Z,17.8
2017-07-10T06:25:36.197Z,17.9
2017-07-10T06:26:38.218Z,18
2017-07-10T06:27:40.668Z,18
2017-07-10T06:28:42.683Z,18
2017-07-10T06:29:44.716Z,18
2017-07-10T06:30:46.737Z,18
2017-07-10T06:31:48.757Z,18.1
2017-07-10T06:32:50.773Z,18.1
2017-07-10T06:33:52.833Z,18.1
2017-07-10T06:34:54.852Z,18.3
2017-07-10T06:35:56.975Z,18.2
2017-07-10T06:36:59.000Z,18.3
2017-07-10T06:38:01.021Z,18.2
2017-07-10T06:39:03.057Z,18.3
2017-07-10T06:40:05.088Z,18.3
2017-07-10T06:41:07.112Z,18.3
2017-07-10T06:42:09.135Z,18.3
2017-07-10T06:43:11.169Z,18.3
2017-07-10T06:44:13.196Z,18.3
2017-07-10T06:45:15.211Z,18.3
2017-07-10T06:46:17.231Z,18.3
2017-07-10T06:47:19.257Z,18.3
2017-07-10T06:48:21.280Z,18.3
2017-07-10T06:49:23.306Z,18.3
2017-07-10T06:50:25.323Z,18.3
2017-07-10T06:51:27.348Z,18.3
2017-07-10T06:52:29.373Z,18.4
2017-07-10T06:53:31.386Z,18.4
2017-07-10T06:54:33.424Z,18.4
2017-07-10T06:55:35.453Z,18.4
2017-07-10T06:56:37.486Z,18.5
2017-07-10T06:57:39.523Z,18.5
2017-07-10T06:58:41.532Z,18.5
2017-07-10T06:59:43.572Z,18.6
2017-07-10T07:00:45.589Z,18.6
2017-07-10T07:01:47.616Z,18.6
2017-07-10T07:02:49.650Z,18.6
2017-07-10T07:03:51.677Z,18.7
2017-07-10T07:04:53.701Z,18.7
2017-07-10T07:05:55.721Z,18.7
2017-07-10T07:06:57.748Z,18.7
2017-07-10T07:07:59.773Z,18.7
2017-07-10T07:09:01.793Z,18.7
2017-07-10T07:10:03.825Z,18.7
2017-07-10T07:11:05.856Z,18.7
2017-07-10T07:12:07.872Z,18.7
2017-07-10T07:13:09.897Z,18.8
2017-07-10T07:14:11.940Z,18.8
2017-07-10T07:15:13.967Z,18.8
2017-07-10T07:16:15.995Z,18.9
2017-07-10T07:17:18.016Z,18.9
2017-07-10T07:18:20.040Z,18.9
2017-07-10T07:19:22.072Z,18.9
2017-07-10T07:20:24.097Z,18.9
2017-07-10T07:21:26.131Z,18.9
2017-07-10T07:22:28.148Z,18.9
2017-07-10T07:23:30.177Z,19
2017-07-10T07:24:32.199Z,19
2017-07-10T07:25:34.225Z,19
2017-07-10T07:26:36.305Z,19
2017-07-10T07:27:38.286Z,19
2017-07-10T07:28:40.312Z,19
2017-07-10T07:29:42.340Z,19
2017-07-10T07:30:44.360Z,19
2017-07-10T07:31:46.388Z,19
2017-07-10T07:32:48.418Z,19.1
2017-07-10T07:33:50.441Z,19.1
2017-07-10T07:34:52.474Z,19.1
2017-07-10T07:36:58.755Z,19
2017-07-10T07:38:00.817Z,19.1
2017-07-10T07:39:02.894Z,19.1
2017-07-10T07:40:04.965Z,19.1
2017-07-10T07:41:07.032Z,19.1
2017-07-10T07:42:09.095Z,19.2
2017-07-10T07:43:11.170Z,19.3
2017-07-10T07:44:13.244Z,19.3
2017-07-10T07:45:15.300Z,19.2
2017-07-10T07:46:17.378Z,19.3
2017-07-10T07:47:19.450Z,19.3
2017-07-10T07:48:21.528Z,19.3
2017-07-10T07:49:23.602Z,19.4
2017-07-10T07:50:25.663Z,19.5
2017-07-10T07:51:27.735Z,19.5
2017-07-10T07:52:29.815Z,19.5
2017-07-10T07:53:31.887Z,19.5
2017-07-10T07:54:33.967Z,19.5
2017-07-10T07:55:36.033Z,19.5
2017-07-10T07:56:38.097Z,19.5
2017-07-10T07:57:40.166Z,19.5
2017-07-10T07:58:42.240Z,19.6
2017-07-10T07:59:44.320Z,19.6
2017-07-10T08:00:46.393Z,19.5
2017-07-10T08:01:48.455Z,19.4
2017-07-10T08:02:50.517Z,19.5
2017-07-10T08:03:52.587Z,19.6
2017-07-10T08:04:54.656Z,19.5
2017-07-10T08:05:56.726Z,19.5
2017-07-10T08:06:58.798Z,19.5
2017-07-10T08:08:00.870Z,19.4
2017-07-10T08:09:02.936Z,19.4
2017-07-10T08:10:05.003Z,19.3
2017-07-10T08:11:07.076Z,19.4
2017-07-10T08:12:09.142Z,19.3
2017-07-10T08:13:11.209Z,19.3
2017-07-10T08:14:13.269Z,19.3
2017-07-10T08:15:15.347Z,19.2
2017-07-10T08:16:17.414Z,19.2
2017-07-10T08:17:19.483Z,19.2
2017-07-10T08:18:21.908Z,19.2
2017-07-10T08:19:23.974Z,19.3
2017-07-10T08:20:26.044Z,19.3
2017-07-10T08:21:28.112Z,19.3
2017-07-10T08:22:30.187Z,19.3
2017-07-10T08:23:32.261Z,19.2
2017-07-10T08:24:34.322Z,19.2
2017-07-10T08:25:36.392Z,19.3
2017-07-10T08:26:38.460Z,19.3
2017-07-10T08:27:40.525Z,19.3
2017-07-10T08:28:42.598Z,19.3
2017-07-10T08:29:44.672Z,19.3
2017-07-10T08:30:46.742Z,19.3
2017-07-10T08:31:48.814Z,19.4
2017-07-10T08:32:50.884Z,19.5
2017-07-10T08:33:52.954Z,19.5
2017-07-10T08:34:55.020Z,19.6
2017-07-10T08:35:57.089Z,19.5
2017-07-10T08:36:59.161Z,19.5
2017-07-10T08:38:01.236Z,19.6
2017-07-10T08:39:03.301Z,19.6
2017-07-10T08:40:05.380Z,19.6
2017-07-10T08:41:07.445Z,19.6
2017-07-10T08:42:09.519Z,19.6
2017-07-10T08:43:11.585Z,19.5
2017-07-10T08:44:13.656Z,19.6
2017-07-10T08:45:15.720Z,19.6
2017-07-10T08:46:17.796Z,19.5
2017-07-10T08:47:19.876Z,19.5
2017-07-10T08:48:21.945Z,19.4
2017-07-10T08:49:24.008Z,19.4
2017-07-10T08:50:26.081Z,19.5
2017-07-10T08:51:28.149Z,19.6
2017-07-10T08:52:30.227Z,19.5
2017-07-10T08:53:32.292Z,19.6
2017-07-10T08:54:34.366Z,19.6
2017-07-10T08:55:36.432Z,19.6
2017-07-10T08:56:38.510Z,19.5
2017-07-10T08:57:40.936Z,19.5
2017-07-10T08:58:43.010Z,19.5
2017-07-10T08:59:45.075Z,19.5
2017-07-10T09:00:47.143Z,19.5
2017-07-10T09:01:49.202Z,19.5
2017-07-10T09:02:51.271Z,19.4
2017-07-10T09:03:53.352Z,19.4
2017-07-10T09:04:55.427Z,19.4
2017-07-10T09:05:57.499Z,19.4
2017-07-10T09:06:59.568Z,19.3
2017-07-10T09:08:01.635Z,19.4
2017-07-10T09:09:03.704Z,19.4
2017-07-10T09:10:05.781Z,19.4
2017-07-10T09:11:07.847Z,19.4
2017-07-10T09:12:09.919Z,19.3
2017-07-10T09:13:11.984Z,19.3
2017-07-10T09:14:14.051Z,19.1
2017-07-10T09:15:16.113Z,19
2017-07-10T09:16:18.181Z,19.1
2017-07-10T09:17:20.258Z,19.1
2017-07-10T09:18:22.328Z,19
2017-07-10T09:19:24.395Z,18.9
2017-07-10T09:20:26.465Z,18.8
2017-07-10T09:21:28.534Z,18.7
2017-07-10T09:22:30.602Z,18.7
2017-07-10T09:23:32.660Z,18.8
2017-07-10T09:24:34.732Z,18.8
2017-07-10T09:25:36.802Z,18.7
2017-07-10T09:26:38.872Z,18.6
2017-07-10T09:27:40.934Z,18.5
2017-07-10T09:28:43.000Z,18.5
2017-07-10T09:29:45.076Z,18.6
2017-07-10T09:30:47.140Z,18.6
2017-07-10T09:31:49.193Z,18.6
2017-07-10T09:32:51.264Z,18.6
2017-07-10T09:33:53.703Z,18.6
2017-07-10T09:34:55.764Z,18.6
2017-07-10T09:35:57.833Z,18.6
2017-07-10T09:36:59.900Z,18.5
2017-07-10T09:38:02.004Z,18.4
2017-07-10T09:39:04.064Z,18.4
2017-07-10T09:40:06.124Z,18.4
2017-07-10T09:41:08.546Z,18.4
2017-07-10T09:42:10.607Z,18.4
2017-07-10T09:43:12.675Z,18.5
2017-07-10T09:44:14.744Z,18.4
2017-07-10T09:45:16.809Z,18.3
2017-07-10T09:46:18.873Z,18.3
2017-07-10T09:47:20.945Z,18.3
2017-07-10T09:48:23.002Z,18.3
2017-07-10T09:49:25.083Z,18.4
2017-07-10T09:50:27.160Z,18.4
2017-07-10T09:51:29.217Z,18.4
2017-07-10T09:52:31.288Z,18.4
2017-07-10T09:53:33.354Z,18.3
2017-07-10T09:54:35.422Z,18.4
2017-07-10T09:55:37.488Z,18.4
2017-07-10T09:56:39.901Z,18.4
2017-07-10T09:57:41.987Z,18.4
2017-07-10T09:58:44.057Z,18.4
2017-07-10T09:59:46.116Z,18.5
2017-07-10T10:00:48.191Z,18.5
2017-07-10T10:01:50.258Z,18.5
2017-07-10T10:02:52.321Z,18.4
2017-07-10T10:03:54.384Z,18.2
2017-07-10T10:04:56.460Z,18.1
2017-07-10T10:05:58.531Z,18.1
2017-07-10T10:07:00.653Z,18.1
2017-07-10T10:08:02.693Z,18
2017-07-10T10:09:04.753Z,18
2017-07-10T10:10:06.816Z,17.9
2017-07-10T10:11:08.885Z,17.9
2017-07-10T10:12:10.949Z,17.8
2017-07-10T10:13:13.017Z,17.8
2017-07-10T10:14:15.085Z,17.7
2017-07-10T10:15:17.155Z,17.7
2017-07-10T10:16:19.216Z,17.8
2017-07-10T10:17:21.273Z,17.8
2017-07-10T10:18:23.343Z,17.8
2017-07-10T10:19:25.400Z,17.8
2017-07-10T10:20:27.469Z,17.8
2017-07-10T10:21:29.546Z,17.9
2017-07-10T10:22:31.606Z,17.9
2017-07-10T10:23:33.666Z,18
2017-07-10T10:24:35.738Z,17.9
2017-07-10T10:25:37.803Z,17.9
2017-07-10T10:26:39.872Z,18
2017-07-10T10:27:41.938Z,17.9
2017-07-10T10:28:44.001Z,17.9
2017-07-10T10:29:46.073Z,18
2017-07-10T10:30:48.153Z,18
2017-07-10T10:31:50.201Z,18
2017-07-10T10:32:52.276Z,18
2017-07-10T10:33:54.344Z,18
2017-07-10T10:34:56.403Z,17.9
2017-07-10T10:35:58.472Z,17.9
2017-07-10T10:37:00.544Z,17.9
2017-07-10T10:38:02.611Z,17.9
2017-07-10T10:39:04.675Z,17.8
2017-07-10T10:40:06.736Z,17.8
2017-07-10T10:41:09.156Z,17.8
2017-07-10T10:42:11.224Z,17.8
2017-07-10T10:43:13.292Z,17.7
2017-07-10T10:44:15.363Z,17.7
2017-07-10T10:45:17.442Z,17.8
2017-07-10T10:46:19.500Z,17.8
2017-07-10T10:47:21.567Z,17.8
2017-07-10T10:48:23.635Z,17.8
2017-07-10T10:49:25.706Z,17.9
2017-07-10T10:50:27.777Z,17.9
2017-07-10T10:51:29.840Z,17.9
2017-07-10T10:52:31.911Z,17.8
2017-07-10T10:53:33.973Z,17.8
2017-07-10T10:54:36.040Z,17.8
2017-07-10T10:55:38.104Z,17.9
2017-07-10T10:56:40.176Z,17.9
2017-07-10T10:57:42.258Z,18
2017-07-10T10:58:44.326Z,17.9
2017-07-10T10:59:46.389Z,17.8
2017-07-10T11:00:48.459Z,17.9
2017-07-10T11:01:50.525Z,17.9
2017-07-10T11:02:52.596Z,17.8
2017-07-10T11:03:54.664Z,17.7
2017-07-10T11:04:56.724Z,17.7
2017-07-10T11:05:58.794Z,17.7
2017-07-10T11:07:00.856Z,17.7
2017-07-10T11:08:02.924Z,17.8
2017-07-10T11:09:04.984Z,17.8
2017-07-10T11:10:07.051Z,17.7
2017-07-10T11:11:09.107Z,17.6
2017-07-10T11:12:11.181Z,17.6
2017-07-10T11:13:13.256Z,17.6
2017-07-10T11:14:15.324Z,17.5
2017-07-10T11:15:17.391Z,17.5
2017-07-10T11:16:19.455Z,17.5
2017-07-10T11:17:21.521Z,17.5
2017-07-10T11:18:23.576Z,17.5
2017-07-10T11:19:25.645Z,17.5
2017-07-10T11:20:27.713Z,17.5
2017-07-10T11:21:29.775Z,17.5
2017-07-10T11:22:31.842Z,17.4
2017-07-10T11:23:33.902Z,17.4
2017-07-10T11:24:35.966Z,17.4
2017-07-10T11:25:38.042Z,17.5
2017-07-10T11:26:40.096Z,17.5
2017-07-10T11:27:42.161Z,17.5
2017-07-10T11:28:44.220Z,17.5
2017-07-10T11:29:46.284Z,17.5
2017-07-10T11:30:48.346Z,17.5
2017-07-10T11:31:50.424Z,17.5
2017-07-10T11:32:52.485Z,17.5
2017-07-10T11:33:54.558Z,17.4
2017-07-10T11:34:56.629Z,17.4
2017-07-10T11:35:58.698Z,17.4
2017-07-10T11:37:00.756Z,17.3
2017-07-10T11:38:02.820Z,17.4
2017-07-10T11:39:04.890Z,17.3
2017-07-10T11:40:06.960Z,17.3
2017-07-10T11:41:09.024Z,17.3
2017-07-10T11:42:11.093Z,17.3
2017-07-10T11:43:13.171Z,17.3
2017-07-10T11:44:15.254Z,17.3
2017-07-10T11:45:17.655Z,17.4
2017-07-10T11:46:19.720Z,17.4
2017-07-10T11:47:21.796Z,17.4
2017-07-10T11:48:23.875Z,17.4
2017-07-10T11:49:25.934Z,17.4
2017-07-10T11:50:28.353Z,17.3
2017-07-10T11:51:30.415Z,17.3
2017-07-10T11:52:32.481Z,17.3
2017-07-10T11:53:34.538Z,17.3
2017-07-10T11:54:36.604Z,17.3
2017-07-10T11:55:38.670Z,17.3
2017-07-10T11:56:40.735Z,17.3
2017-07-10T11:57:42.793Z,17.2
2017-07-10T11:58:44.858Z,17.2
2017-07-10T11:59:46.919Z,17.1
2017-07-10T12:00:48.977Z,17.1
2017-07-10T12:01:51.043Z,17.1
2017-07-10T12:02:53.109Z,17.1
2017-07-10T12:03:55.175Z,17.1
2017-07-10T12:04:57.236Z,17.1
2017-07-10T12:05:59.307Z,17.1
2017-07-10T12:07:01.371Z,17.1
2017-07-10T12:08:03.431Z,17.1
2017-07-10T12:09:05.501Z,17.1
2017-07-10T12:10:07.567Z,17.1
2017-07-10T12:11:09.632Z,17.1
2017-07-10T12:12:11.752Z,17.1
2017-07-10T12:13:13.762Z,17.1
2017-07-10T12:14:16.529Z,17.1
2017-07-10T12:15:18.588Z,17
2017-07-10T12:16:20.647Z,17
2017-07-10T12:17:22.715Z,17
2017-07-10T12:18:24.774Z,17
2017-07-10T12:19:27.202Z,17
2017-07-10T12:20:29.274Z,17
2017-07-10T12:21:31.685Z,17
2017-07-10T12:22:33.754Z,17
2017-07-10T12:23:35.810Z,17
2017-07-10T12:24:37.876Z,17.1
2017-07-10T12:25:39.948Z,17.1
2017-07-10T12:26:42.010Z,17
2017-07-10T12:27:44.080Z,17
2017-07-10T12:28:46.987Z,17
2017-07-10T12:29:49.051Z,17
2017-07-10T12:30:51.176Z,17
2017-07-10T12:31:53.240Z,17.1
2017-07-10T12:32:55.910Z,17.1
2017-07-10T12:34:05.712Z,17.1
2017-07-10T12:35:11.262Z,17.1
2017-07-10T12:36:14.354Z,17.1
2017-07-10T12:37:20.105Z,17.1
2017-07-10T12:38:22.759Z,17.1
2017-07-10T12:39:24.838Z,17.1
2017-07-10T12:40:26.907Z,17.1
2017-07-10T12:41:28.962Z,17.1
2017-07-10T12:42:31.029Z,17.1
2017-07-10T12:43:33.114Z,17.1
2017-07-10T12:44:35.183Z,17.2
2017-07-10T12:45:37.251Z,17.2
2017-07-10T12:46:39.322Z,17.3
2017-07-10T12:47:42.384Z,17.3
2017-07-10T12:48:44.442Z,17.3
2017-07-10T12:49:46.531Z,17.3
2017-07-10T12:50:48.606Z,17.3
2017-07-10T12:51:51.301Z,17.4
2017-07-10T12:52:53.354Z,17.4
2017-07-10T12:53:55.419Z,17.4
2017-07-10T12:54:57.482Z,17.4
2017-07-10T12:55:59.550Z,17.3
2017-07-10T12:57:01.618Z,17.4
2017-07-10T12:58:03.690Z,17.3
2017-07-10T12:59:05.744Z,17.3
2017-07-10T13:00:07.820Z,17.3
2017-07-10T13:01:09.880Z,17.2
2017-07-10T13:02:11.968Z,17.2
2017-07-10T13:03:14.061Z,17.2
2017-07-10T13:04:16.483Z,17.3
2017-07-10T13:05:18.550Z,17.2
2017-07-10T13:06:20.614Z,17.2
2017-07-10T13:07:22.687Z,17.3
2017-07-10T13:08:24.753Z,17.2
2017-07-10T13:09:26.820Z,17.2
2017-07-10T13:10:28.897Z,17.2
2017-07-10T13:11:30.967Z,17.2
2017-07-10T13:12:33.026Z,17.2
2017-07-10T13:13:35.090Z,17.2
2017-07-10T13:14:37.512Z,17.3
2017-07-10T13:15:39.581Z,17.3
2017-07-10T13:16:41.644Z,17.3
2017-07-10T13:17:43.710Z,17.3
2017-07-10T13:18:45.773Z,17.3
2017-07-10T13:19:47.828Z,17.2
2017-07-10T13:20:49.898Z,17.2
2017-07-10T13:21:52.317Z,17.2
2017-07-10T13:22:54.382Z,17.2
2017-07-10T13:23:56.435Z,17.2
2017-07-10T13:24:58.510Z,17.3
2017-07-10T13:26:00.572Z,17.3
2017-07-10T13:27:02.630Z,17.2
2017-07-10T13:28:04.701Z,17.2
2017-07-10T13:29:06.769Z,17.2
2017-07-10T13:30:08.836Z,17.2
2017-07-10T13:31:10.906Z,17.2
2017-07-10T13:32:12.969Z,17.2
2017-07-10T13:33:15.027Z,17.2
2017-07-10T13:34:17.105Z,17.2
2017-07-10T13:35:19.171Z,17.2
2017-07-10T13:36:21.293Z,17.2
2017-07-10T13:37:23.376Z,17.1
2017-07-10T13:38:25.451Z,17.2
2017-07-10T13:39:27.522Z,17.1
2017-07-10T13:40:29.575Z,17
2017-07-10T13:41:31.654Z,17
2017-07-10T13:42:34.070Z,17
2017-07-10T13:43:36.130Z,17
2017-07-10T13:44:38.198Z,17
2017-07-10T13:45:40.253Z,17
2017-07-10T13:46:42.320Z,16.9
2017-07-10T13:47:44.380Z,16.9
2017-07-10T13:48:46.440Z,16.9
2017-07-10T13:49:48.516Z,16.9
2017-07-10T13:50:50.577Z,16.9
2017-07-10T13:51:52.650Z,16.9
2017-07-10T13:52:54.718Z,16.9
2017-07-10T13:53:56.780Z,16.8